Time;durP1;ratioP1;P1;durP2;ratioP2;P2;SDS_P1;SDS_P2;PMS_P1;PMS_P2;Temp;Humidity;BMP_temperature;BMP_pressure;BME280_temperature;BME280_humidity;BME280_pressure;Samples;Min_cycle;Max_cycle;Signal;HPM_P1;HPM_P2
2021/08/20 00:01:55;;;;;;;4.10;1.60;;;18.20;99.90;;;;;;5000931;28;20061;-81
2021/08/20 00:04:23;;;;;;;2.88;1.63;;;18.20;99.90;;;;;;4984904;28;20046;-81
2021/08/20 00:06:51;;;;;;;2.67;1.38;;;18.10;99.90;;;;;;4975317;28;20055;-81
2021/08/20 00:09:19;;;;;;;2.08;1.25;;;18.00;99.90;;;;;;5006714;28;20046;-81
2021/08/20 00:11:47;;;;;;;2.92;1.30;;;18.00;99.90;;;;;;5003472;28;20050;-81
2021/08/20 00:14:15;;;;;;;5.00;1.58;;;17.90;99.90;;;;;;4986046;28;20081;-82
2021/08/20 00:16:44;;;;;;;2.50;1.42;;;17.80;99.90;;;;;;5000159;28;20053;-82
2021/08/20 00:19:12;;;;;;;5.80;2.38;;;17.80;99.90;;;;;;5000418;28;20396;-82
2021/08/20 00:21:41;;;;;;;2.55;1.80;;;17.70;99.90;;;;;;4968619;28;20054;-81
2021/08/20 00:24:10;;;;;;;2.13;1.60;;;17.60;99.90;;;;;;4984936;28;20205;-80
2021/08/20 00:26:38;;;;;;;2.42;1.58;;;17.60;99.90;;;;;;5000374;28;20047;-81
2021/08/20 00:29:06;;;;;;;3.75;2.05;;;17.50;99.90;;;;;;4992898;28;20069;-81
2021/08/20 09:16:12;;;;;;;6.50;2.93;;;19.30;99.90;;;;;;4564859;27;14823625;-81
2021/08/20 09:19:09;;;;;;;7.43;1.77;;;19.90;99.90;;;;;;5096299;27;20436;-88
2021/08/20 09:21:54;;;;;;;6.43;2.50;;;20.00;99.90;;;;;;5137121;27;20316;-89
2021/08/20 09:25:47;;;;;;;4.68;1.42;;;19.90;99.90;;;;;;5017295;27;1601298;-82
2021/08/20 09:28:32;;;;;;;9.73;1.77;;;20.00;99.90;;;;;;5126622;27;20428;-88
2021/08/20 09:31:28;;;;;;;5.22;1.75;;;20.00;99.90;;;;;;5122673;27;20408;-82
2021/08/20 09:34:10;;;;;;;4.57;2.45;;;20.00;99.90;;;;;;5140863;27;20387;-87
2021/08/20 09:37:14;;;;;;;3.35;1.25;;;19.90;99.90;;;;;;5204269;27;20389;-82
2021/08/20 09:40:11;;;;;;;10.80;2.58;;;19.90;99.90;;;;;;5080475;27;20404;-81
2021/08/20 09:42:49;;;;;;;3.53;2.05;;;19.90;99.90;;;;;;5172843;27;20375;-82
2021/08/20 09:45:30;;;;;;;2.33;1.42;;;19.80;99.90;;;;;;5203503;27;20388;-81
2021/08/20 09:48:09;;;;;;;5.68;1.42;;;19.90;99.90;;;;;;5111709;27;20389;-83
2021/08/20 09:51:09;;;;;;;5.28;2.22;;;19.90;99.90;;;;;;5120684;27;20442;-82
2021/08/20 09:54:23;;;;;;;9.85;4.18;;;19.90;99.90;;;;;;5082742;27;20446;-83
2021/08/20 09:57:28;;;;;;;3.05;1.42;;;19.80;99.90;;;;;;5141883;27;20111;-82
2021/08/20 10:10:32;;;;;;;10.57;2.60;;;20.50;99.90;;;;;;5129361;27;20398;-82
2021/08/20 10:13:15;;;;;;;9.02;2.50;;;19.70;99.90;;;;;;5034130;27;1289778;-81
2021/08/20 10:16:09;;;;;;;3.58;1.27;;;19.80;99.90;;;;;;5080380;27;20411;-82
2021/08/20 10:18:37;;;;;;;2.53;1.30;;;19.80;99.90;;;;;;5028648;28;20506;-82
2021/08/20 10:21:08;;;;;;;8.10;2.17;;;19.80;99.90;;;;;;5068697;28;20059;-82
2021/08/20 10:23:37;;;;;;;4.78;1.77;;;19.80;99.90;;;;;;5045471;28;20053;-82
2021/08/20 10:26:09;;;;;;;6.47;2.20;;;19.70;99.90;;;;;;5059312;28;20049;-81
2021/08/20 10:28:39;;;;;;;3.28;1.65;;;19.70;99.90;;;;;;5059644;28;20049;-82
2021/08/20 10:31:11;;;;;;;4.63;1.40;;;19.70;99.90;;;;;;5070761;28;20051;-81
2021/08/20 10:33:39;;;;;;;5.82;2.00;;;19.80;99.90;;;;;;5059000;28;20068;-81
2021/08/20 10:36:07;;;;;;;8.07;1.55;;;19.80;99.90;;;;;;5070235;28;20066;-81
2021/08/20 10:38:50;;;;;;;5.03;1.50;;;19.80;99.90;;;;;;5079601;28;20052;-81
2021/08/20 10:41:22;;;;;;;1.92;1.55;;;19.80;99.90;;;;;;5059567;28;20053;-82
2021/08/20 10:44:11;;;;;;;7.40;1.92;;;19.80;99.90;;;;;;5097409;28;20625;-86
2021/08/20 10:47:09;;;;;;;2.05;1.15;;;19.20;99.90;;;;;;5196417;27;20406;-82
2021/08/20 10:50:19;;;;;;;6.00;1.38;;;19.90;99.90;;;;;;5083778;27;20443;-81
2021/08/20 10:53:20;;;;;;;5.38;1.70;;;20.00;99.90;;;;;;4981453;27;4093712;-87
2021/08/20 10:56:31;;;;;;;5.22;1.98;;;20.10;99.90;;;;;;5001233;27;1394904;-81
2021/08/20 10:59:37;;;;;;;6.50;1.80;;;20.30;99.90;;;;;;5155095;27;20375;-82
2021/08/20 11:02:18;;;;;;;1.88;1.25;;;20.40;99.90;;;;;;5182721;27;20429;-82
2021/08/20 11:05:08;;;;;;;5.53;1.60;;;20.50;99.90;;;;;;5078398;27;1340971;-82
2021/08/20 11:08:00;;;;;;;4.45;1.77;;;20.60;99.90;;;;;;5117064;27;20408;-82
2021/08/20 11:11:32;;;;;;;3.95;1.25;;;20.70;99.90;;;;;;5098136;27;20444;-86
2021/08/20 11:14:32;;;;;;;4.70;1.60;;;20.80;99.90;;;;;;5083435;27;20412;-83
2021/08/20 11:17:12;;;;;;;3.15;1.50;;;20.60;99.90;;;;;;5047673;27;2134944;-82
2021/08/20 11:20:17;;;;;;;4.75;2.65;;;20.70;99.90;;;;;;5084260;27;20403;-82
2021/08/20 11:25:57;;;;;;;3.13;1.40;;;20.70;99.90;;;;;;5142901;27;20401;-82
2021/08/20 11:28:56;;;;;;;1.98;1.00;;;20.70;99.90;;;;;;5102734;27;20398;-81
2021/08/20 11:32:03;;;;;;;2.85;1.13;;;20.80;99.90;;;;;;5083814;27;20412;-83
2021/08/20 11:34:33;;;;;;;3.05;0.95;;;20.90;99.90;;;;;;5081249;28;20047;-82
2021/08/20 11:37:04;;;;;;;2.47;1.58;;;21.00;99.90;;;;;;5063255;28;20053;-82
2021/08/20 11:39:32;;;;;;;3.47;1.40;;;21.10;99.90;;;;;;5060409;28;20072;-83
2021/08/20 11:42:13;;;;;;;1.20;0.82;;;21.20;99.90;;;;;;5080230;28;20051;-82
2021/08/20 11:44:45;;;;;;;3.83;1.17;;;21.20;99.90;;;;;;5080396;28;20053;-82
2021/08/20 11:47:16;;;;;;;2.78;1.33;;;21.30;99.90;;;;;;5081413;28;20044;-82
2021/08/20 11:49:45;;;;;;;2.95;1.23;;;21.30;99.90;;;;;;5079724;28;20064;-82
2021/08/20 11:52:13;;;;;;;1.67;1.10;;;21.30;99.90;;;;;;5080398;28;20049;-82
2021/08/20 11:54:41;;;;;;;1.73;0.82;;;21.20;99.90;;;;;;5060219;28;20052;-82
2021/08/20 11:57:09;;;;;;;1.90;1.23;;;21.20;99.80;;;;;;5076728;28;20058;-81
2021/08/20 11:59:37;;;;;;;5.70;1.25;;;21.20;99.60;;;;;;5043520;28;20057;-82
2021/08/20 12:02:05;;;;;;;2.75;1.10;;;21.10;99.80;;;;;;5073595;28;20045;-82
2021/08/20 12:04:37;;;;;;;7.63;1.30;;;21.10;99.70;;;;;;5066934;28;20053;-81
2021/08/20 12:07:06;;;;;;;6.50;1.00;;;21.10;99.90;;;;;;5073852;28;20041;-83
2021/08/20 12:09:35;;;;;;;2.00;0.98;;;21.00;99.60;;;;;;5079019;28;20060;-82
2021/08/20 12:12:04;;;;;;;1.80;0.82;;;21.10;99.70;;;;;;5071492;28;20309;-83
2021/08/20 12:14:52;;;;;;;2.97;1.20;;;21.00;99.60;;;;;;5064330;28;20044;-81
2021/08/20 12:17:23;;;;;;;2.13;0.98;;;21.00;99.70;;;;;;5080344;28;20051;-82
2021/08/20 12:19:51;;;;;;;3.92;1.23;;;21.00;99.60;;;;;;5078825;28;20290;-83
2021/08/20 12:22:20;;;;;;;4.80;1.40;;;21.00;99.70;;;;;;5071763;28;20041;-82
2021/08/20 12:24:54;;;;;;;9.07;1.58;;;20.90;99.80;;;;;;5068991;28;20406;-82
2021/08/20 12:27:26;;;;;;;3.97;1.75;;;21.00;99.80;;;;;;5084430;28;20033;-82
2021/08/20 12:29:57;;;;;;;;;;;21.10;99.70;;;;;;5082021;28;20059;-82
2021/08/20 12:32:37;;;;;;;4.40;1.77;;;21.00;99.40;;;;;;5070551;28;19935;-82
2021/08/20 12:35:17;;;;;;;4.22;1.38;;;21.00;99.50;;;;;;5066233;28;20047;-82
2021/08/20 12:38:09;;;;;;;4.72;1.30;;;21.00;99.50;;;;;;5077986;28;20048;-82
2021/08/20 12:40:40;;;;;;;3.50;1.55;;;21.00;99.60;;;;;;5080797;28;20056;-82
2021/08/20 12:43:28;;;;;;;2.70;1.30;;;21.10;99.50;;;;;;5032974;28;20053;-82
2021/08/20 12:46:14;;;;;;;2.65;1.25;;;21.20;99.20;;;;;;5055260;28;20049;-82
2021/08/20 12:48:59;;;;;;;5.00;1.75;;;21.20;98.90;;;;;;5031713;28;20042;-83
2021/08/20 12:51:28;;;;;;;6.63;1.85;;;21.20;98.90;;;;;;5049606;28;20072;-82
2021/08/20 12:54:14;;;;;;;3.25;1.42;;;21.30;99.10;;;;;;5068102;28;20052;-82
2021/08/20 12:56:44;;;;;;;2.42;1.30;;;21.30;99.00;;;;;;5068640;28;20048;-82
2021/08/20 12:59:18;;;;;;;4.28;1.27;;;21.30;98.80;;;;;;5053585;28;20048;-82
2021/08/20 13:01:48;;;;;;;7.53;1.95;;;21.30;99.10;;;;;;5064972;28;20045;-82
2021/08/20 13:04:18;;;;;;;5.25;1.65;;;21.30;98.90;;;;;;5052340;28;20049;-82
2021/08/20 13:06:47;;;;;;;8.43;1.83;;;21.40;99.00;;;;;;5053093;28;20055;-82
2021/08/20 13:09:15;;;;;;;4.10;1.58;;;21.50;98.80;;;;;;5056065;28;20420;-82
2021/08/20 13:11:50;;;;;;;3.45;1.45;;;21.60;98.60;;;;;;5033901;28;20060;-82
2021/08/20 13:14:18;;;;;;;8.32;1.95;;;21.70;98.60;;;;;;5043983;28;20056;-82
2021/08/20 13:16:47;;;;;;;5.05;1.58;;;21.90;98.70;;;;;;5067335;28;20053;-82
2021/08/20 13:19:15;;;;;;;7.72;2.33;;;21.70;98.30;;;;;;5067893;28;20045;-82
2021/08/20 13:21:43;;;;;;;6.00;1.83;;;22.00;98.10;;;;;;5052619;28;20052;-82
2021/08/20 13:24:11;;;;;;;4.13;1.55;;;22.10;98.10;;;;;;5066973;28;20045;-82
2021/08/20 13:26:39;;;;;;;3.17;1.10;;;22.20;97.90;;;;;;5065271;28;20079;-82
2021/08/20 13:29:07;;;;;;;4.47;1.35;;;22.40;97.80;;;;;;5047288;28;20051;-82
2021/08/20 13:31:59;;;;;;;2.35;1.10;;;22.50;97.70;;;;;;5049337;28;20507;-82
2021/08/20 13:34:27;;;;;;;3.35;1.52;;;22.80;97.60;;;;;;5063419;28;20056;-83
2021/08/20 13:36:57;;;;;;;3.90;1.23;;;23.00;97.20;;;;;;5063765;28;20059;-82
2021/08/20 13:39:25;;;;;;;2.28;1.00;;;23.10;97.00;;;;;;5053966;28;20056;-83
2021/08/20 13:41:53;;;;;;;14.90;2.08;;;23.20;97.10;;;;;;5048294;28;20060;-83
2021/08/20 13:44:21;;;;;;;2.42;1.17;;;23.20;96.70;;;;;;5032218;28;20083;-82
2021/08/20 13:46:49;;;;;;;3.67;1.58;;;23.20;96.70;;;;;;5044439;28;20067;-82
2021/08/20 13:49:29;;;;;;;5.47;1.30;;;23.30;96.70;;;;;;5057341;28;20041;-83
2021/08/20 13:52:11;;;;;;;2.63;1.23;;;23.50;96.00;;;;;;5060013;28;20072;-82
2021/08/20 13:54:43;;;;;;;6.18;1.20;;;23.80;96.10;;;;;;5054013;28;20049;-82
2021/08/20 13:57:11;;;;;;;1.83;0.98;;;24.10;96.00;;;;;;5059023;28;20052;-82
2021/08/20 13:59:39;;;;;;;3.40;1.08;;;24.50;95.70;;;;;;5064151;28;20060;-82
2021/08/20 14:02:07;;;;;;;7.05;1.02;;;24.90;95.00;;;;;;5050050;28;20045;-82
2021/08/20 14:04:35;;;;;;;5.80;1.75;;;24.90;94.40;;;;;;5028701;28;20053;-83
2021/08/20 14:07:05;;;;;;;2.17;0.70;;;25.00;94.50;;;;;;5035308;28;20045;-81
2021/08/20 14:09:35;;;;;;;3.05;1.45;;;25.20;94.10;;;;;;5029132;28;20063;-82
2021/08/20 14:12:03;;;;;;;5.75;1.08;;;25.30;94.10;;;;;;5062607;28;20127;-82
2021/08/20 14:14:31;;;;;;;1.73;0.80;;;25.60;93.90;;;;;;5048033;28;20064;-82
2021/08/20 14:16:59;;;;;;;2.10;1.10;;;25.80;93.50;;;;;;5063496;28;20059;-83
2021/08/20 14:19:27;;;;;;;5.50;1.60;;;25.80;93.10;;;;;;5061877;28;20056;-82
2021/08/20 14:21:55;;;;;;;2.30;0.70;;;26.10;93.20;;;;;;5044399;28;20041;-81
2021/08/20 14:24:25;;;;;;;6.35;1.15;;;26.50;92.60;;;;;;5046080;28;20041;-83
2021/08/20 14:26:53;;;;;;;2.20;0.68;;;26.70;92.20;;;;;;5063071;28;20307;-82
2021/08/20 14:29:21;;;;;;;2.92;1.15;;;27.00;91.90;;;;;;5062291;28;20391;-83
2021/08/20 14:31:49;;;;;;;2.47;1.02;;;27.30;91.50;;;;;;5042410;28;21058;-82
2021/08/20 14:34:17;;;;;;;6.07;1.23;;;27.30;91.20;;;;;;5034677;28;20510;-83
2021/08/20 14:36:45;;;;;;;2.50;1.20;;;27.00;91.20;;;;;;5062692;28;20052;-82
2021/08/20 14:39:13;;;;;;;3.67;1.85;;;26.70;91.50;;;;;;5060826;28;20043;-82
2021/08/20 14:41:41;;;;;;;4.00;1.23;;;26.40;91.30;;;;;;5014652;28;20053;-83
2021/08/20 14:44:10;;;;;;;2.58;1.50;;;25.90;91.70;;;;;;5045130;28;20052;-82
2021/08/20 14:46:38;;;;;;;5.07;1.10;;;25.50;91.40;;;;;;5049518;28;20060;-82
2021/08/20 14:49:07;;;;;;;2.22;0.98;;;25.10;92.10;;;;;;5047761;28;20051;-82
2021/08/20 14:51:35;;;;;;;4.78;1.40;;;24.70;92.50;;;;;;5062776;28;20311;-82
2021/08/20 14:54:03;;;;;;;3.92;1.13;;;24.30;92.80;;;;;;5059542;28;20061;-82
2021/08/20 14:56:31;;;;;;;3.08;0.95;;;24.00;93.20;;;;;;5051728;28;20049;-82
2021/08/20 14:58:59;;;;;;;3.60;1.23;;;23.90;93.30;;;;;;5062678;28;20045;-82
2021/08/20 15:01:28;;;;;;;6.20;1.30;;;23.80;93.60;;;;;;5055836;28;20069;-81
2021/08/20 15:03:58;;;;;;;2.90;1.13;;;23.70;93.80;;;;;;5043849;28;20049;-83
2021/08/20 15:06:26;;;;;;;4.72;1.27;;;23.70;93.60;;;;;;5049064;28;20055;-83
2021/08/20 15:08:55;;;;;;;5.30;1.30;;;23.70;93.60;;;;;;5063291;28;20056;-81
2021/08/20 15:11:28;;;;;;;1.98;1.20;;;23.60;93.70;;;;;;5048502;28;20040;-82
2021/08/20 15:14:06;;;;;;;3.42;0.90;;;23.50;93.80;;;;;;5064058;28;20045;-81
2021/08/20 15:16:54;;;;;;;6.07;1.75;;;23.50;93.90;;;;;;5063134;28;20055;-81
2021/08/20 15:19:22;;;;;;;4.65;1.10;;;23.40;94.00;;;;;;5049966;28;20037;-82
2021/08/20 15:21:50;;;;;;;3.63;1.30;;;23.30;94.10;;;;;;5040811;28;20053;-81
2021/08/20 15:24:18;;;;;;;5.43;1.70;;;23.30;93.90;;;;;;5052962;28;20045;-82
2021/08/20 15:26:46;;;;;;;5.22;1.20;;;23.20;94.20;;;;;;5061073;28;20045;-82
2021/08/20 15:29:14;;;;;;;7.40;2.33;;;23.10;94.40;;;;;;5052343;28;20044;-82
2021/08/20 15:31:42;;;;;;;2.95;1.38;;;23.10;94.40;;;;;;5040676;28;20063;-81
2021/08/20 15:34:10;;;;;;;5.18;1.58;;;23.00;94.40;;;;;;5053644;28;20053;-82
2021/08/20 15:36:38;;;;;;;5.88;1.65;;;22.90;94.40;;;;;;5044723;28;20060;-82
2021/08/20 15:39:22;;;;;;;4.95;1.60;;;22.80;94.50;;;;;;5057678;28;20045;-82
2021/08/20 15:41:50;;;;;;;3.03;1.40;;;22.90;94.60;;;;;;5044111;28;20075;-81
2021/08/20 15:44:19;;;;;;;4.68;1.73;;;22.90;94.70;;;;;;5061518;28;20505;-82
2021/08/20 15:46:46;;;;;;;5.18;1.67;;;22.90;94.60;;;;;;5031202;28;20054;-82
2021/08/20 15:49:14;;;;;;;3.70;1.38;;;22.80;94.70;;;;;;5027537;28;20045;-83
2021/08/20 15:51:42;;;;;;;3.88;1.60;;;22.70;95.00;;;;;;5043025;28;20053;-81
2021/08/20 15:54:11;;;;;;;4.68;1.40;;;22.60;95.10;;;;;;5024679;28;20096;-82
2021/08/20 15:56:42;;;;;;;3.30;1.50;;;22.80;95.50;;;;;;5036938;28;20053;-82
2021/08/20 15:59:17;;;;;;;6.75;1.40;;;22.50;95.50;;;;;;5046875;28;20037;-82
2021/08/20 16:01:45;;;;;;;3.85;1.30;;;22.50;95.70;;;;;;5062159;28;20055;-83
2021/08/20 16:04:14;;;;;;;8.27;2.92;;;22.40;95.80;;;;;;5061594;28;20041;-82
2021/08/20 16:06:41;;;;;;;3.05;1.40;;;22.20;95.80;;;;;;5048038;28;20040;-82
2021/08/20 16:09:09;;;;;;;10.63;2.13;;;22.20;96.20;;;;;;5058563;28;20048;-82
2021/08/20 16:11:37;;;;;;;3.72;1.35;;;22.10;96.40;;;;;;5062432;28;20037;-81
2021/08/20 16:14:06;;;;;;;4.22;1.60;;;22.00;96.50;;;;;;5063418;28;20045;-83
2021/08/20 16:16:35;;;;;;;6.75;1.80;;;21.90;96.50;;;;;;5062397;28;20040;-82
2021/08/20 16:19:10;;;;;;;5.25;1.70;;;21.90;96.60;;;;;;5065551;28;20064;-82
2021/08/20 16:21:39;;;;;;;14.23;2.38;;;21.80;96.80;;;;;;5050875;28;20394;-82
2021/08/20 16:24:32;;;;;;;6.90;2.47;;;21.80;96.70;;;;;;5048095;28;20386;-83
2021/08/20 16:27:01;;;;;;;4.65;1.80;;;21.80;97.20;;;;;;5048653;28;20049;-83
2021/08/20 16:29:29;;;;;;;6.80;1.70;;;21.80;97.00;;;;;;5055043;28;20054;-82
2021/08/20 16:31:57;;;;;;;6.07;1.75;;;21.80;97.10;;;;;;5029465;28;20049;-82
2021/08/20 16:34:29;;;;;;;4.10;1.75;;;21.80;97.50;;;;;;5039060;28;20045;-82
2021/08/20 16:36:58;;;;;;;8.65;2.45;;;21.80;97.40;;;;;;5058641;28;20041;-82
2021/08/20 16:39:26;;;;;;;6.88;1.73;;;21.80;97.50;;;;;;5062361;28;20060;-82
2021/08/20 16:41:56;;;;;;;5.85;1.90;;;21.70;97.70;;;;;;5048570;28;20056;-82
2021/08/20 16:44:25;;;;;;;8.55;2.45;;;21.70;97.60;;;;;;5064850;28;20131;-82
2021/08/20 16:46:53;;;;;;;6.70;1.48;;;21.70;97.70;;;;;;5047877;28;20049;-81
2021/08/20 16:49:23;;;;;;;5.95;1.73;;;21.60;97.80;;;;;;5053996;28;20052;-81
2021/08/20 16:51:53;;;;;;;6.57;2.10;;;21.50;97.90;;;;;;5066017;28;20041;-82
2021/08/20 16:54:20;;;;;;;9.10;2.58;;;21.50;98.10;;;;;;5032023;28;20053;-82
2021/08/20 16:56:48;;;;;;;10.88;2.72;;;21.40;98.20;;;;;;5046342;28;20046;-82
2021/08/20 16:59:18;;;;;;;15.20;2.80;;;21.30;98.30;;;;;;5065110;28;20048;-82
2021/08/20 17:01:47;;;;;;;5.38;2.35;;;21.30;98.60;;;;;;5066470;28;20543;-82
2021/08/20 17:04:16;;;;;;;5.43;2.33;;;21.20;98.70;;;;;;5064733;28;20128;-82
2021/08/20 17:06:44;;;;;;;4.82;2.03;;;21.20;99.00;;;;;;5035290;28;20059;-82
2021/08/20 17:09:12;;;;;;;5.35;2.67;;;21.10;99.10;;;;;;5064243;28;20063;-82
2021/08/20 17:11:40;;;;;;;5.40;2.13;;;21.10;99.20;;;;;;5046897;28;20049;-83
2021/08/20 17:14:09;;;;;;;8.88;3.10;;;21.00;99.30;;;;;;5051882;28;20055;-82
2021/08/20 17:16:37;;;;;;;8.35;2.75;;;21.00;99.30;;;;;;5047969;28;20646;-82
2021/08/20 17:19:04;;;;;;;7.97;2.20;;;21.00;99.40;;;;;;5065000;28;20367;-83
2021/08/20 17:21:33;;;;;;;8.73;2.42;;;20.90;99.50;;;;;;5051177;28;20053;-82
2021/08/20 17:24:04;;;;;;;9.45;3.00;;;20.90;99.60;;;;;;5045234;28;20061;-82
2021/08/20 17:26:32;;;;;;;4.80;2.47;;;20.90;99.60;;;;;;5060776;28;20049;-82
2021/08/20 17:29:00;;;;;;;6.63;2.47;;;20.90;99.60;;;;;;5029001;28;20119;-82
2021/08/20 17:31:29;;;;;;;6.85;2.70;;;20.90;99.70;;;;;;5045730;28;20046;-82
2021/08/20 17:33:57;;;;;;;11.40;2.55;;;20.90;99.70;;;;;;5031340;28;20046;-82
2021/08/20 17:36:25;;;;;;;10.05;3.22;;;20.80;99.90;;;;;;5057323;28;20049;-83
2021/08/20 17:38:52;;;;;;;5.22;2.85;;;20.80;99.90;;;;;;5028420;28;20045;-83
2021/08/20 17:41:21;;;;;;;8.73;2.47;;;20.80;99.90;;;;;;5039754;28;20045;-82
2021/08/20 17:43:50;;;;;;;7.38;2.90;;;20.70;99.90;;;;;;5065473;28;20045;-83
2021/08/20 17:46:18;;;;;;;6.68;3.28;;;20.70;99.90;;;;;;5066262;28;20059;-82
2021/08/20 17:48:47;;;;;;;7.10;2.50;;;20.70;99.90;;;;;;5063612;28;20041;-83
2021/08/20 17:51:15;;;;;;;8.65;3.00;;;20.60;99.90;;;;;;5053917;28;20049;-83
2021/08/20 17:53:43;;;;;;;10.57;3.53;;;20.50;99.90;;;;;;5064004;28;20049;-82
2021/08/20 17:56:11;;;;;;;7.90;2.85;;;20.50;99.90;;;;;;5026884;28;20042;-81
2021/08/20 17:58:42;;;;;;;7.85;3.08;;;20.60;99.90;;;;;;5060449;28;20045;-82
2021/08/20 18:01:11;;;;;;;9.25;3.03;;;20.50;99.90;;;;;;5053394;28;20045;-82
2021/08/20 18:03:40;;;;;;;11.07;3.00;;;20.50;99.90;;;;;;5052590;28;20037;-82
2021/08/20 18:06:08;;;;;;;8.60;3.00;;;20.50;99.90;;;;;;5066260;28;20049;-82
2021/08/20 18:08:37;;;;;;;7.28;2.95;;;20.50;99.90;;;;;;5065844;28;20053;-82
2021/08/20 18:11:06;;;;;;;10.65;3.35;;;20.40;99.90;;;;;;5029619;28;20068;-82
2021/08/20 18:13:35;;;;;;;7.40;3.15;;;20.40;99.90;;;;;;5051591;28;20057;-83
2021/08/20 18:16:04;;;;;;;9.55;3.03;;;20.40;99.90;;;;;;5054611;28;20055;-81
2021/08/20 18:18:32;;;;;;;6.32;2.78;;;20.40;99.90;;;;;;5060536;28;20061;-82
2021/08/20 18:21:00;;;;;;;5.32;2.85;;;20.40;99.90;;;;;;5053814;28;20053;-82
2021/08/20 18:23:29;;;;;;;6.72;3.45;;;20.30;99.90;;;;;;5063721;28;20053;-83
2021/08/20 18:25:57;;;;;;;8.63;3.28;;;20.30;99.90;;;;;;5058356;28;20033;-83
2021/08/20 18:28:26;;;;;;;8.55;3.38;;;20.30;99.90;;;;;;5066344;28;20045;-82
2021/08/20 18:30:55;;;;;;;6.07;3.53;;;20.30;99.90;;;;;;5066696;28;20061;-82
2021/08/20 18:33:24;;;;;;;12.65;4.13;;;20.30;99.90;;;;;;5064105;28;20059;-83
2021/08/20 18:35:52;;;;;;;13.15;4.88;;;20.20;99.90;;;;;;5064951;28;20502;-82
2021/08/20 18:38:22;;;;;;;10.23;3.63;;;20.20;99.90;;;;;;5065089;28;20049;-82
2021/08/20 18:40:50;;;;;;;11.90;4.57;;;20.10;99.90;;;;;;5031628;28;20045;-83
2021/08/20 18:43:18;;;;;;;8.52;4.60;;;20.20;99.90;;;;;;5058903;28;20049;-82
2021/08/20 18:45:48;;;;;;;15.73;5.03;;;20.10;99.90;;;;;;5047555;28;20053;-83
2021/08/20 18:48:17;;;;;;;11.43;4.15;;;20.10;99.90;;;;;;5056765;28;20467;-82
2021/08/20 18:50:46;;;;;;;13.20;4.90;;;20.10;99.90;;;;;;5052165;28;20037;-83
2021/08/20 18:53:39;;;;;;;7.82;4.00;;;20.00;99.90;;;;;;5066052;28;20049;-81
2021/08/20 18:56:07;;;;;;;9.48;4.38;;;20.20;99.90;;;;;;5051877;28;20045;-84
2021/08/20 18:58:35;;;;;;;10.57;4.28;;;19.90;99.90;;;;;;5065243;28;20063;-82
2021/08/20 19:01:07;;;;;;;9.00;3.72;;;19.90;99.90;;;;;;5061055;28;20050;-84
2021/08/20 19:03:36;;;;;;;12.45;4.70;;;19.90;99.90;;;;;;5047550;28;20076;-82
2021/08/20 19:06:04;;;;;;;11.68;3.85;;;19.90;99.90;;;;;;5045512;28;20055;-83
2021/08/20 19:08:34;;;;;;;11.35;4.05;;;19.80;99.90;;;;;;5059722;28;20045;-82
2021/08/20 19:11:03;;;;;;;13.27;4.50;;;19.80;99.90;;;;;;5060816;28;20053;-82
2021/08/20 19:13:33;;;;;;;13.15;4.30;;;19.70;99.90;;;;;;5051067;28;20402;-82
2021/08/20 19:16:02;;;;;;;11.63;4.10;;;19.70;99.90;;;;;;5047693;28;20311;-82
2021/08/20 19:18:30;;;;;;;12.20;3.78;;;19.70;99.90;;;;;;5064795;28;20045;-83
2021/08/20 19:20:58;;;;;;;14.27;3.95;;;19.60;99.90;;;;;;5048142;28;20048;-82
2021/08/20 19:23:28;;;;;;;17.60;3.25;;;19.60;99.90;;;;;;5044632;28;20057;-83
2021/08/20 19:25:57;;;;;;;10.75;3.20;;;19.50;99.90;;;;;;5045014;28;20053;-82
2021/08/20 19:28:25;;;;;;;8.35;3.72;;;19.50;99.90;;;;;;5060507;28;20056;-82
2021/08/20 19:30:53;;;;;;;14.18;3.65;;;19.50;99.90;;;;;;5055322;28;20059;-83
2021/08/20 19:33:24;;;;;;;8.37;3.70;;;19.40;99.90;;;;;;5037030;28;20049;-82
2021/08/20 19:35:52;;;;;;;12.70;4.07;;;19.40;99.90;;;;;;5066994;28;20286;-82
2021/08/20 19:38:21;;;;;;;9.70;3.80;;;19.30;99.90;;;;;;5064867;28;20047;-82
2021/08/20 19:40:56;;;;;;;16.67;3.95;;;19.30;99.90;;;;;;5046260;28;20052;-82
2021/08/20 19:43:25;;;;;;;7.78;3.15;;;19.20;99.90;;;;;;5061585;28;20049;-83
2021/08/20 19:45:55;;;;;;;10.23;3.67;;;19.20;99.90;;;;;;5060923;28;20045;-82
2021/08/20 19:48:31;;;;;;;12.10;3.50;;;19.20;99.90;;;;;;5041746;28;20060;-83
2021/08/20 19:51:01;;;;;;;9.93;3.55;;;19.10;99.90;;;;;;5052149;28;20044;-83
2021/08/20 19:53:30;;;;;;;11.25;3.30;;;19.10;99.90;;;;;;5032435;28;20049;-82
2021/08/20 19:56:00;;;;;;;9.98;3.97;;;19.00;99.90;;;;;;5049901;28;20057;-82
2021/08/20 19:58:30;;;;;;;9.43;3.27;;;19.00;99.90;;;;;;5033107;28;20049;-83
2021/08/20 20:00:58;;;;;;;8.07;3.28;;;19.00;99.90;;;;;;5067648;28;20296;-82
2021/08/20 20:03:32;;;;;;;8.20;4.20;;;18.90;99.90;;;;;;5059860;28;20053;-83
2021/08/20 20:06:00;;;;;;;18.20;3.75;;;18.90;99.90;;;;;;5050565;28;20045;-82
2021/08/20 20:08:29;;;;;;;9.45;4.18;;;19.30;99.90;;;;;;5068034;28;20059;-83
2021/08/20 20:10:57;;;;;;;8.23;3.42;;;18.90;99.90;;;;;;5063310;28;20063;-81
2021/08/20 20:13:25;;;;;;;9.02;3.85;;;18.90;99.90;;;;;;5050250;28;20038;-81
2021/08/20 20:15:54;;;;;;;8.95;3.22;;;18.80;99.90;;;;;;5063090;28;20045;-82
2021/08/20 20:18:22;;;;;;;12.30;3.97;;;18.80;99.90;;;;;;5036797;28;20049;-82
2021/08/20 20:20:51;;;;;;;14.13;4.22;;;18.80;99.90;;;;;;5055721;28;20060;-82
2021/08/20 20:23:19;;;;;;;12.05;3.88;;;18.80;99.90;;;;;;5063704;28;20100;-82
2021/08/20 20:25:48;;;;;;;7.93;3.88;;;18.70;99.90;;;;;;5059733;28;20053;-82
2021/08/20 20:28:16;;;;;;;11.35;3.83;;;18.70;99.90;;;;;;5065667;28;20061;-82
2021/08/20 20:30:44;;;;;;;14.38;3.88;;;18.70;99.90;;;;;;5037794;28;20434;-82
2021/08/20 20:33:12;;;;;;;9.05;3.40;;;18.60;99.90;;;;;;5064713;28;20049;-82
2021/08/20 20:35:41;;;;;;;15.23;5.20;;;18.70;99.90;;;;;;5053913;28;20049;-82
2021/08/20 20:38:10;;;;;;;14.35;3.78;;;18.50;99.90;;;;;;5064767;28;20041;-82
2021/08/20 20:40:37;;;;;;;6.80;3.50;;;18.60;99.90;;;;;;5065006;28;20053;-82
2021/08/20 20:43:05;;;;;;;12.55;4.18;;;18.60;99.90;;;;;;5065934;28;20041;-82
2021/08/20 20:45:33;;;;;;;10.88;4.78;;;18.60;99.90;;;;;;5036122;28;20046;-82
2021/08/20 20:48:01;;;;;;;9.70;4.55;;;18.60;99.90;;;;;;5038945;28;20049;-82
2021/08/20 20:50:29;;;;;;;9.85;3.38;;;18.50;99.90;;;;;;5035445;28;20049;-82
2021/08/20 20:52:58;;;;;;;12.23;4.18;;;18.50;99.90;;;;;;5065940;28;20045;-83
2021/08/20 20:55:27;;;;;;;8.68;3.72;;;18.50;99.90;;;;;;5066083;28;20059;-81
2021/08/20 20:57:57;;;;;;;8.05;3.53;;;18.50;99.90;;;;;;5065356;28;20531;-82
2021/08/20 21:00:26;;;;;;;15.50;4.75;;;18.50;99.90;;;;;;5066574;28;20045;-81
2021/08/20 21:02:55;;;;;;;10.95;4.40;;;18.50;99.90;;;;;;5044857;28;20072;-82
2021/08/20 21:05:25;;;;;;;9.93;3.97;;;18.50;99.90;;;;;;5045955;28;20046;-81
2021/08/20 21:07:52;;;;;;;12.07;3.60;;;18.40;99.90;;;;;;5041916;28;20045;-82
2021/08/20 21:10:21;;;;;;;10.43;4.05;;;18.40;99.90;;;;;;5054667;28;20041;-83
2021/08/20 21:12:51;;;;;;;13.07;5.10;;;18.40;99.90;;;;;;5034782;28;20056;-81
2021/08/20 21:15:20;;;;;;;8.85;4.50;;;18.40;99.90;;;;;;5034578;28;20717;-82
2021/08/20 21:17:47;;;;;;;12.27;5.13;;;18.40;99.90;;;;;;5044839;28;20058;-81
2021/08/20 21:20:17;;;;;;;10.35;4.20;;;18.30;99.90;;;;;;5031591;28;20055;-82
2021/08/20 21:22:46;;;;;;;7.80;4.10;;;18.30;99.90;;;;;;5065422;28;20045;-82
2021/08/20 21:25:14;;;;;;;11.13;4.03;;;18.40;99.90;;;;;;5061700;28;20056;-82
2021/08/20 21:27:42;;;;;;;10.88;3.92;;;18.30;99.90;;;;;;5023846;28;20051;-82
2021/08/20 21:30:11;;;;;;;11.50;4.57;;;18.30;99.90;;;;;;5049321;28;20046;-82
2021/08/20 21:32:39;;;;;;;12.65;4.38;;;18.20;99.90;;;;;;5050113;28;20041;-82
2021/08/20 21:35:09;;;;;;;11.82;4.60;;;18.30;99.90;;;;;;5061380;28;20052;-83
2021/08/20 21:37:50;;;;;;;11.20;5.00;;;18.30;99.90;;;;;;5053028;28;20045;-80
2021/08/20 21:40:20;;;;;;;14.48;4.60;;;18.20;99.90;;;;;;5033042;28;20057;-82
2021/08/20 21:42:48;;;;;;;13.45;3.97;;;18.20;99.90;;;;;;5067220;28;20045;-82
2021/08/20 21:45:17;;;;;;;12.15;4.40;;;18.20;99.90;;;;;;5065093;28;20057;-82
2021/08/20 21:47:48;;;;;;;10.38;4.18;;;18.20;99.90;;;;;;5066188;28;20056;-82
2021/08/20 21:50:16;;;;;;;9.88;4.72;;;18.20;99.90;;;;;;5064807;28;20059;-82
2021/08/20 21:52:44;;;;;;;12.80;6.00;;;18.20;99.90;;;;;;5046288;28;20057;-82
2021/08/20 21:55:12;;;;;;;13.20;5.32;;;18.20;99.90;;;;;;5046259;28;20057;-82
2021/08/20 21:57:40;;;;;;;14.23;5.32;;;18.20;99.90;;;;;;5040540;28;20053;-82
2021/08/20 22:00:09;;;;;;;15.70;5.03;;;18.10;99.90;;;;;;5056634;28;20060;-82
2021/08/20 22:02:46;;;;;;;13.73;5.25;;;18.20;99.90;;;;;;5063546;28;20047;-81
2021/08/20 22:05:17;;;;;;;12.20;5.50;;;18.20;99.90;;;;;;5037141;28;20060;-82
2021/08/20 22:07:56;;;;;;;15.13;4.90;;;18.20;99.90;;;;;;5050265;28;20060;-82
2021/08/20 22:10:29;;;;;;;17.42;5.00;;;18.20;99.90;;;;;;5055640;28;20059;-82